Time;durP1;ratioP1;P1;durP2;ratioP2;P2;SDS_P1;SDS_P2;PMS_P1;PMS_P2;Temp;Humidity;BMP_temperature;BMP_pressure;BME280_temperature;BME280_humidity;BME280_pressure;Samples;Min_cycle;Max_cycle;Signal;HPM_P1;HPM_P2
2023/05/10 00:00:40;;;;;;;27.75;19.75;;;;;;;12.32;100.00;100757.84;5022259;28;20390;-78
2023/05/10 00:03:05;;;;;;;23.20;19.48;;;;;;;12.32;100.00;100760.47;5028784;28;20031;-77
2023/05/10 00:05:31;;;;;;;27.95;19.35;;;;;;;12.34;100.00;100766.47;5030479;28;20017;-77
2023/05/10 00:07:57;;;;;;;26.55;20.38;;;;;;;12.29;100.00;100766.84;5036147;28;20029;-77
2023/05/10 00:10:22;;;;;;;29.10;21.33;;;;;;;12.28;100.00;100759.88;5046749;28;20032;-78
2023/05/10 00:12:48;;;;;;;27.40;21.30;;;;;;;12.25;100.00;100760.16;5028936;28;20037;-78
2023/05/10 00:15:13;;;;;;;31.98;22.67;;;;;;;12.24;100.00;100759.31;5029376;28;20025;-78
2023/05/10 00:17:39;;;;;;;29.98;23.10;;;;;;;12.21;100.00;100759.56;5023201;28;20041;-78
2023/05/10 00:20:05;;;;;;;28.40;22.17;;;;;;;12.20;100.00;100759.69;5028478;28;20045;-78
2023/05/10 00:22:32;;;;;;;28.98;22.80;;;;;;;12.18;100.00;100761.63;5027492;28;20127;-78
2023/05/10 00:24:58;;;;;;;27.83;22.00;;;;;;;12.14;100.00;100760.19;5030300;28;20100;-78
2023/05/10 00:27:23;;;;;;;30.08;22.85;;;;;;;12.13;100.00;100758.53;5030460;28;20038;-78
2023/05/10 00:29:49;;;;;;;31.40;24.13;;;;;;;12.10;100.00;100758.78;5027111;28;20131;-78
2023/05/10 00:32:15;;;;;;;30.27;23.92;;;;;;;12.09;100.00;100762.38;5025372;28;20168;-78
2023/05/10 00:34:40;;;;;;;36.90;26.38;;;;;;;12.08;100.00;100765.97;5016254;28;20100;-78
2023/05/10 00:37:06;;;;;;;35.63;27.05;;;;;;;12.06;100.00;100760.00;5026846;28;20021;-78
2023/05/10 00:39:31;;;;;;;37.97;27.25;;;;;;;12.07;100.00;100759.03;5029564;28;20025;-78
2023/05/10 00:41:57;;;;;;;43.17;28.58;;;;;;;12.06;100.00;100765.25;5024992;28;20038;-78
2023/05/10 00:44:23;;;;;;;44.28;30.55;;;;;;;12.04;100.00;100769.84;5008793;28;20026;-78
2023/05/10 00:46:49;;;;;;;45.47;31.15;;;;;;;12.05;100.00;100766.22;5010086;28;20033;-78
2023/05/10 00:49:15;;;;;;;41.45;30.85;;;;;;;12.08;100.00;100763.34;5009571;28;20026;-78
2023/05/10 00:51:42;;;;;;;42.97;32.33;;;;;;;12.07;100.00;100765.13;5015392;28;20436;-78
2023/05/10 00:54:09;;;;;;;47.60;32.60;;;;;;;12.07;100.00;100754.59;5032857;28;20025;-78
2023/05/10 00:56:36;;;;;;;52.40;36.10;;;;;;;12.11;100.00;100761.28;5049951;28;20055;-78
2023/05/10 00:59:01;;;;;;;51.30;35.22;;;;;;;12.13;100.00;100758.53;5035282;28;20035;-77
2023/05/10 01:01:28;;;;;;;55.45;36.97;;;;;;;12.12;100.00;100756.84;5028134;28;20033;-77
2023/05/10 01:03:55;;;;;;;57.60;38.03;;;;;;;12.13;100.00;100758.53;5030479;28;20106;-78
2023/05/10 01:06:20;;;;;;;54.13;37.47;;;;;;;12.14;100.00;100754.91;5026766;28;20501;-77
2023/05/10 01:08:47;;;;;;;56.03;38.05;;;;;;;12.14;100.00;100752.28;5031386;28;20048;-77
2023/05/10 01:11:13;;;;;;;63.70;40.25;;;;;;;12.15;100.00;100752.16;5026534;28;21964;-77
2023/05/10 01:13:40;;;;;;;65.28;40.60;;;;;;;12.15;100.00;100751.31;5027045;28;20104;-79
2023/05/10 01:16:07;;;;;;;59.67;40.22;;;;;;;12.20;100.00;100757.06;5028745;28;20057;-79
2023/05/10 01:18:40;;;;;;;68.82;42.85;;;;;;;12.21;100.00;100758.72;5027949;28;20037;-79
2023/05/10 01:21:12;;;;;;;78.72;45.90;;;;;;;12.20;100.00;100762.31;5028753;28;20509;-79
2023/05/10 01:24:19;;;;;;;78.20;47.70;;;;;;;12.21;100.00;100750.81;5029205;28;20040;-79
2023/05/10 01:27:16;;;;;;;81.05;46.45;;;;;;;12.19;100.00;100750.09;5024627;28;20296;-79
2023/05/10 01:29:58;;;;;;;77.28;46.95;;;;;;;12.19;100.00;100750.09;5025641;28;20025;-79
2023/05/10 01:32:24;;;;;;;79.65;48.63;;;;;;;12.18;100.00;100746.63;5026848;28;20071;-79
2023/05/10 01:35:07;;;;;;;81.72;48.55;;;;;;;12.17;100.00;100744.97;5027876;28;20029;-79
2023/05/10 01:37:50;;;;;;;87.63;50.03;;;;;;;12.18;100.00;100745.78;5028327;28;20371;-77
2023/05/10 01:40:42;;;;;;;85.88;49.65;;;;;;;12.19;100.00;100750.94;5026648;28;20059;-77
2023/05/10 01:43:19;;;;;;;81.20;48.95;;;;;;;12.20;100.00;100754.41;5037412;28;20111;-77
2023/05/10 01:46:10;;;;;;;86.22;50.50;;;;;;;12.23;100.00;100756.81;5031084;28;20030;-77
2023/05/10 01:48:40;;;;;;;94.70;50.67;;;;;;;12.19;100.00;100758.84;5029503;28;20035;-77
2023/05/10 01:51:07;;;;;;;84.60;50.33;;;;;;;12.19;100.00;100760.66;5030332;28;20056;-76
2023/05/10 01:53:37;;;;;;;83.63;49.80;;;;;;;12.17;100.00;100759.94;5032682;28;20116;-77
2023/05/10 01:56:09;;;;;;;86.18;51.03;;;;;;;12.17;100.00;100755.50;5028216;28;20036;-77
2023/05/10 01:58:36;;;;;;;84.55;52.30;;;;;;;12.18;100.00;100758.97;5032131;28;20026;-77
2023/05/10 02:01:04;;;;;;;87.50;51.15;;;;;;;12.19;100.00;100755.38;5029977;28;20101;-77
2023/05/10 02:03:32;;;;;;;87.20;54.03;;;;;;;12.19;100.00;100758.84;5031372;28;20045;-77
2023/05/10 02:05:58;;;;;;;89.90;54.80;;;;;;;12.19;100.00;100766.75;5032713;28;20033;-77
2023/05/10 02:08:26;;;;;;;88.78;55.05;;;;;;;12.19;100.00;100763.28;5041190;28;20024;-77
2023/05/10 02:10:55;;;;;;;92.13;57.25;;;;;;;12.19;100.00;100764.13;5031033;28;20033;-77
2023/05/10 02:13:23;;;;;;;107.80;65.55;;;;;;;12.17;100.00;100765.22;5019308;28;20060;-77
2023/05/10 02:15:50;;;;;;;102.03;64.35;;;;;;;12.20;100.00;100770.25;5017732;28;20049;-77
2023/05/10 02:18:20;;;;;;;109.97;68.75;;;;;;;12.21;100.00;100772.75;5031056;28;20389;-77
2023/05/10 02:20:46;;;;;;;118.07;70.90;;;;;;;12.22;100.00;100774.44;5032117;28;20083;-77
2023/05/10 02:23:14;;;;;;;113.93;72.15;;;;;;;12.22;100.00;100774.44;5030629;28;20029;-77
2023/05/10 02:25:41;;;;;;;112.25;71.72;;;;;;;12.23;100.00;100781.38;5031086;28;20758;-77
2023/05/10 02:28:07;;;;;;;115.38;70.97;;;;;;;12.24;100.00;100774.31;5029600;28;20120;-77
2023/05/10 02:30:35;;;;;;;113.30;71.28;;;;;;;12.24;100.00;100782.22;5021455;28;20028;-77
2023/05/10 02:33:05;;;;;;;107.15;69.47;;;;;;;12.24;100.00;100776.94;5026326;28;20120;-77
2023/05/10 02:35:33;;;;;;;106.43;69.05;;;;;;;12.25;100.00;100778.59;5010722;28;20049;-77
2023/05/10 02:38:00;;;;;;;108.10;67.03;;;;;;;12.27;100.00;100784.59;5019123;28;20347;-77
2023/05/10 02:40:26;;;;;;;104.72;67.38;;;;;;;12.28;100.00;100780.16;5031481;28;20032;-77
2023/05/10 02:42:56;;;;;;;100.53;66.88;;;;;;;12.27;100.00;100786.41;5031815;28;20451;-77
2023/05/10 02:45:27;;;;;;;95.85;65.50;;;;;;;12.25;100.00;100789.16;5028381;28;20022;-77
2023/05/10 02:47:53;;;;;;;93.22;64.35;;;;;;;12.23;100.00;100780.53;5027883;28;20053;-77
2023/05/10 02:50:19;;;;;;;101.00;64.72;;;;;;;12.20;100.00;100779.00;5039160;28;20132;-78
2023/05/10 02:52:54;;;;;;;97.78;64.63;;;;;;;12.19;100.00;100779.13;5050552;28;20036;-78
2023/05/10 02:55:26;;;;;;;93.78;63.83;;;;;;;12.19;100.00;100784.41;5050027;28;20029;-78
2023/05/10 02:57:54;;;;;;;;;;;;;;;12.29;100.00;100785.31;5038937;28;20116;-77
2023/05/10 03:00:20;;;;;;;92.45;63.53;;;;;;;12.22;100.00;100792.88;5029306;28;19913;-78
2023/05/10 03:02:48;;;;;;;92.30;62.15;;;;;;;12.22;100.00;100784.97;5025910;28;20033;-78
2023/05/10 03:05:13;;;;;;;94.88;61.63;;;;;;;12.21;100.00;100785.09;5013638;28;20056;-77
2023/05/10 03:07:39;;;;;;;91.78;60.13;;;;;;;12.20;100.00;100781.63;5034213;28;20076;-78
2023/05/10 03:10:05;;;;;;;89.35;59.67;;;;;;;12.22;100.00;100789.41;5028630;28;20448;-77
2023/05/10 03:13:05;;;;;;;89.15;58.92;;;;;;;12.21;100.00;100793.03;5029996;28;20051;-78
2023/05/10 03:15:45;;;;;;;88.72;57.85;;;;;;;12.20;100.00;100791.34;5030722;28;20382;-77
2023/05/10 03:18:26;;;;;;;78.35;53.92;;;;;;;12.21;100.00;100787.75;5028754;28;20028;-77
2023/05/10 03:20:58;;;;;;;82.70;53.22;;;;;;;12.19;100.00;100793.16;5024417;28;20109;-77
2023/05/10 03:23:30;;;;;;;81.72;53.75;;;;;;;12.20;100.00;100792.19;5030102;28;20072;-77
2023/05/10 03:25:56;;;;;;;77.38;51.90;;;;;;;12.21;100.00;100800.94;5028934;28;20029;-77
2023/05/10 03:28:24;;;;;;;77.38;52.03;;;;;;;12.19;100.00;100800.22;5027721;28;20116;-76
2023/05/10 03:30:52;;;;;;;77.43;52.20;;;;;;;12.18;100.00;100799.38;5027777;28;20029;-76
2023/05/10 03:33:18;;;;;;;72.88;51.00;;;;;;;12.18;100.00;100801.19;5028568;28;20039;-77
2023/05/10 03:35:45;;;;;;;73.75;50.85;;;;;;;12.18;100.00;100799.38;5029483;28;20025;-76
2023/05/10 03:38:11;;;;;;;78.13;52.13;;;;;;;12.18;100.00;100809.09;5021724;28;20021;-76
2023/05/10 03:40:37;;;;;;;80.65;52.50;;;;;;;12.16;100.00;100806.59;5027717;28;20394;-77
2023/05/10 03:43:05;;;;;;;80.93;52.20;;;;;;;12.16;100.00;100803.94;5029333;28;20045;-77
2023/05/10 03:45:31;;;;;;;78.32;51.63;;;;;;;12.17;100.00;100807.44;5024962;28;20433;-77
2023/05/10 03:48:05;;;;;;;81.60;51.70;;;;;;;12.17;100.00;100807.44;5029792;28;20025;-77
2023/05/10 03:50:31;;;;;;;83.82;52.58;;;;;;;12.16;100.00;100813.66;5027640;28;20025;-77
2023/05/10 03:52:57;;;;;;;80.72;52.53;;;;;;;12.16;100.00;100803.94;5026973;28;20037;-76
2023/05/10 03:55:27;;;;;;;82.35;52.95;;;;;;;12.16;100.00;100805.75;5022050;28;20247;-77
2023/05/10 03:57:53;;;;;;;79.45;51.83;;;;;;;12.14;100.00;100813.78;5044063;28;20106;-77
2023/05/10 04:00:19;;;;;;;87.00;54.10;;;;;;;12.14;100.00;100807.69;5028275;28;20039;-77
2023/05/10 04:02:44;;;;;;;83.72;54.03;;;;;;;12.17;100.00;100817.97;5028663;28;20477;-77
2023/05/10 04:05:10;;;;;;;83.10;53.10;;;;;;;12.18;100.00;100820.50;5027076;28;20033;-77
2023/05/10 04:07:36;;;;;;;92.88;56.30;;;;;;;12.16;100.00;100811.03;5034901;28;20029;-77
2023/05/10 04:10:06;;;;;;;106.30;60.50;;;;;;;12.17;100.00;100818.81;5028131;28;20135;-77
2023/05/10 04:12:31;;;;;;;121.10;67.97;;;;;;;12.14;100.00;100813.78;5024188;28;20025;-76
2023/05/10 04:15:04;;;;;;;127.75;72.30;;;;;;;12.14;100.00;100823.50;5029281;28;20033;-77
2023/05/10 04:17:31;;;;;;;124.60;69.78;;;;;;;12.14;100.00;100823.50;5030462;28;20474;-77
2023/05/10 04:19:56;;;;;;;133.10;72.35;;;;;;;12.13;100.00;100821.81;5029995;28;20053;-77
2023/05/10 04:22:21;;;;;;;120.50;69.03;;;;;;;12.10;100.00;100822.06;5026977;28;20834;-77
2023/05/10 04:24:48;;;;;;;109.40;65.07;;;;;;;12.06;100.00;100828.56;5029929;28;20029;-77
2023/05/10 04:27:13;;;;;;;100.70;60.42;;;;;;;12.01;100.00;100821.03;5047980;28;20524;-76
2023/05/10 04:29:39;;;;;;;96.43;58.60;;;;;;;11.99;100.00;100830.81;5031171;28;20035;-77
2023/05/10 04:32:04;;;;;;;86.75;53.97;;;;;;;11.93;100.00;100831.31;5026463;28;20029;-76
2023/05/10 04:34:30;;;;;;;75.55;49.20;;;;;;;11.92;100.00;100830.47;5029846;28;20029;-77
2023/05/10 04:36:55;;;;;;;70.35;46.33;;;;;;;11.93;100.00;100824.25;5029353;28;20421;-76
2023/05/10 04:39:21;;;;;;;65.70;43.03;;;;;;;11.92;100.00;100835.75;5028307;28;20032;-77
2023/05/10 04:41:46;;;;;;;64.03;42.80;;;;;;;11.91;100.00;100831.44;5028278;28;20051;-76
2023/05/10 04:44:11;;;;;;;58.33;40.10;;;;;;;11.86;100.00;100836.25;5028119;28;20116;-76
2023/05/10 04:46:37;;;;;;;59.95;39.88;;;;;;;11.86;100.00;100841.53;5023974;28;20032;-76
2023/05/10 04:49:02;;;;;;;59.88;39.70;;;;;;;11.84;100.00;100843.44;5028426;28;20025;-76
2023/05/10 04:51:32;;;;;;;56.13;39.08;;;;;;;11.83;100.00;100846.19;5028293;28;20688;-76
2023/05/10 04:53:58;;;;;;;53.10;37.38;;;;;;;11.83;100.00;100833.03;5030054;28;20478;-76
2023/05/10 04:56:23;;;;;;;54.22;37.35;;;;;;;11.82;100.00;100844.53;5024970;28;20031;-76
2023/05/10 04:58:49;;;;;;;49.63;36.42;;;;;;;11.79;100.00;100839.50;5023250;28;20760;-76
2023/05/10 05:01:14;;;;;;;47.40;35.28;;;;;;;11.81;100.00;100841.06;5025513;28;20087;-77
2023/05/10 05:03:39;;;;;;;48.67;35.40;;;;;;;11.79;100.00;100844.78;5024484;28;20112;-77
2023/05/10 05:06:05;;;;;;;48.35;35.95;;;;;;;11.81;100.00;100846.31;5026689;28;20120;-77
2023/05/10 05:08:31;;;;;;;45.60;33.92;;;;;;;11.79;100.00;100845.59;5029599;28;20053;-78
2023/05/10 05:10:56;;;;;;;49.97;35.85;;;;;;;11.81;100.00;100843.69;5027817;28;20026;-78
2023/05/10 05:13:22;;;;;;;46.53;34.47;;;;;;;11.87;100.00;100843.19;5027087;28;20060;-78
2023/05/10 05:15:50;;;;;;;48.58;34.03;;;;;;;11.85;100.00;100850.38;5026939;28;20029;-78
2023/05/10 05:18:15;;;;;;;49.70;35.47;;;;;;;11.88;100.00;100844.88;5027208;28;20036;-78
2023/05/10 05:20:41;;;;;;;47.58;34.88;;;;;;;11.93;100.00;100861.16;5026788;28;20045;-78
2023/05/10 05:23:07;;;;;;;47.95;34.65;;;;;;;11.90;100.00;100857.94;5013197;28;20497;-78
2023/05/10 05:25:32;;;;;;;48.00;34.75;;;;;;;11.87;100.00;100859.00;5028979;28;20016;-78
2023/05/10 05:27:58;;;;;;;47.38;35.15;;;;;;;11.85;100.00;100858.28;5030752;28;20243;-78
2023/05/10 05:30:24;;;;;;;50.25;36.70;;;;;;;11.85;100.00;100863.56;5032910;28;20023;-78
2023/05/10 05:32:49;;;;;;;46.47;35.03;;;;;;;11.87;100.00;100858.19;5032798;28;20038;-78
2023/05/10 05:35:16;;;;;;;48.40;35.20;;;;;;;11.89;100.00;100861.53;5032944;28;20070;-78
2023/05/10 05:37:42;;;;;;;49.72;35.13;;;;;;;11.92;100.00;100870.03;5024840;28;20557;-78
2023/05/10 05:40:08;;;;;;;49.65;35.28;;;;;;;11.97;100.00;100874.09;5031368;28;20033;-77
2023/05/10 05:42:33;;;;;;;51.53;36.03;;;;;;;11.99;100.00;100872.19;5031863;28;20049;-78
2023/05/10 05:45:06;;;;;;;47.47;33.90;;;;;;;11.96;100.00;100872.44;5031175;28;20075;-78
2023/05/10 05:47:31;;;;;;;47.92;34.78;;;;;;;12.02;100.00;100871.97;5029682;28;20134;-78
2023/05/10 05:49:57;;;;;;;44.50;34.85;;;;;;;12.04;100.00;100872.69;5032432;28;20523;-78
2023/05/10 05:52:22;;;;;;;52.38;35.80;;;;;;;12.09;100.00;100863.44;5031831;28;20152;-77
2023/05/10 05:54:48;;;;;;;46.10;34.60;;;;;;;12.13;100.00;100874.56;5016031;28;20033;-78
2023/05/10 05:57:13;;;;;;;43.63;34.03;;;;;;;12.17;100.00;100882.13;5025538;28;20025;-77
2023/05/10 05:59:43;;;;;;;48.65;35.70;;;;;;;12.24;100.00;100877.19;5032254;28;20029;-78
2023/05/10 06:02:09;;;;;;;50.72;36.20;;;;;;;12.30;100.00;100881.13;5028735;28;20563;-78
2023/05/10 06:04:35;;;;;;;45.63;34.35;;;;;;;12.30;100.00;100886.41;5032279;28;20545;-77
2023/05/10 06:07:01;;;;;;;45.85;35.70;;;;;;;12.30;100.00;100892.50;5031541;28;20109;-78
2023/05/10 06:09:26;;;;;;;44.95;34.97;;;;;;;12.35;100.00;100881.59;5037364;28;20395;-77
2023/05/10 06:11:51;;;;;;;44.55;35.55;;;;;;;12.36;100.00;100888.53;5029277;28;20140;-78
2023/05/10 06:14:17;;;;;;;45.22;34.92;;;;;;;12.38;100.00;100891.88;5030874;28;20029;-77
2023/05/10 06:16:42;;;;;;;48.42;34.92;;;;;;;12.42;100.00;100886.28;5026863;28;20048;-78
2023/05/10 06:19:08;;;;;;;45.30;35.90;;;;;;;12.45;100.00;100901.84;5010223;28;20065;-77
2023/05/10 06:21:35;;;;;;;45.75;35.78;;;;;;;12.55;100.00;100896.66;5011981;28;20033;-77
2023/05/10 06:24:00;;;;;;;45.90;34.90;;;;;;;12.65;100.00;100894.09;5030857;28;20489;-77
2023/05/10 06:26:26;;;;;;;42.40;34.58;;;;;;;12.71;100.00;100909.44;5026264;28;20030;-78
2023/05/10 06:28:51;;;;;;;43.63;34.80;;;;;;;12.71;100.00;100907.63;5031348;28;20021;-78
2023/05/10 06:31:16;;;;;;;42.58;34.85;;;;;;;12.73;100.00;100905.69;5029839;28;20032;-77
2023/05/10 06:33:42;;;;;;;43.15;34.60;;;;;;;12.74;100.00;100906.53;5031929;28;20066;-77
2023/05/10 06:36:07;;;;;;;44.00;35.80;;;;;;;12.73;100.00;100910.16;5030521;28;20022;-78
2023/05/10 06:38:33;;;;;;;41.40;34.45;;;;;;;12.73;100.00;100915.41;5031665;28;20382;-77
2023/05/10 06:40:58;;;;;;;46.70;35.13;;;;;;;12.72;100.00;100913.75;5030625;28;20040;-78
2023/05/10 06:43:24;;;;;;;45.53;36.05;;;;;;;12.73;100.00;100920.69;5021329;28;20108;-78
2023/05/10 06:45:50;;;;;;;45.30;35.83;;;;;;;12.83;100.00;100919.00;5031930;28;20041;-78
2023/05/10 06:48:17;;;;;;;50.35;36.08;;;;;;;12.82;100.00;100920.81;5025777;28;20490;-78
2023/05/10 06:50:42;;;;;;;51.08;37.20;;;;;;;12.85;100.00;100920.56;5011299;28;20087;-77
2023/05/10 06:53:13;;;;;;;43.80;35.13;;;;;;;12.79;100.00;100922.84;5024642;28;20526;-77
2023/05/10 06:55:39;;;;;;;44.17;36.35;;;;;;;12.81;100.00;100918.31;5028323;28;20025;-77
2023/05/10 06:58:06;;;;;;;45.92;35.20;;;;;;;12.74;100.00;100927.66;5029766;28;20029;-77
2023/05/10 07:00:32;;;;;;;46.92;34.47;;;;;;;12.74;100.00;100923.22;5025332;28;20124;-77
2023/05/10 07:02:58;;;;;;;45.60;34.78;;;;;;;12.73;100.00;100923.34;5030827;28;20052;-78
2023/05/10 07:05:24;;;;;;;43.20;34.30;;;;;;;12.74;100.00;100928.50;5029831;28;20018;-77
2023/05/10 07:07:50;;;;;;;41.90;33.30;;;;;;;12.71;100.00;100926.09;5037489;28;20040;-78
2023/05/10 07:10:15;;;;;;;46.80;33.72;;;;;;;12.72;100.00;100935.72;5038888;28;20444;-77
2023/05/10 07:12:40;;;;;;;43.00;31.88;;;;;;;12.75;100.00;100937.25;5027994;28;20040;-77
2023/05/10 07:15:06;;;;;;;40.30;30.20;;;;;;;12.78;100.00;100944.91;5028388;28;20108;-77
2023/05/10 07:17:33;;;;;;;37.08;30.30;;;;;;;12.73;100.00;100950.59;5023379;28;20035;-77
2023/05/10 07:20:04;;;;;;;34.17;28.65;;;;;;;12.79;100.00;100941.31;5048836;28;20037;-77
2023/05/10 07:22:30;;;;;;;34.08;27.70;;;;;;;12.83;100.00;100950.69;5030725;28;20363;-77
2023/05/10 07:24:57;;;;;;;32.30;24.40;;;;;;;12.79;100.00;100963.28;5030279;28;20025;-77
2023/05/10 07:27:22;;;;;;;31.05;24.60;;;;;;;12.81;100.00;100953.47;5032087;28;20352;-77
2023/05/10 07:29:48;;;;;;;32.90;23.55;;;;;;;12.77;100.00;100959.09;5029097;28;20025;-77
2023/05/10 07:32:13;;;;;;;26.40;21.48;;;;;;;12.76;100.00;100958.25;5029888;28;20040;-77
2023/05/10 07:34:40;;;;;;;30.27;21.90;;;;;;;12.78;100.00;100968.69;5029026;28;20397;-77
2023/05/10 07:37:06;;;;;;;28.50;20.65;;;;;;;12.79;100.00;100962.44;5024054;28;20028;-77
2023/05/10 07:39:31;;;;;;;26.35;19.80;;;;;;;12.77;100.00;100959.09;5028537;28;20037;-77
2023/05/10 07:41:56;;;;;;;26.30;19.83;;;;;;;12.74;100.00;100965.47;5028494;28;20095;-77
2023/05/10 07:44:23;;;;;;;22.48;19.17;;;;;;;12.75;100.00;100968.94;5028497;28;20054;-78
2023/05/10 07:46:49;;;;;;;23.50;17.63;;;;;;;12.72;100.00;100970.03;5029094;28;20034;-77
2023/05/10 07:49:16;;;;;;;25.90;17.08;;;;;;;12.74;100.00;100975.19;5027044;28;20440;-77
2023/05/10 07:51:42;;;;;;;20.13;17.23;;;;;;;12.82;100.00;100964.88;5027777;28;20041;-77
2023/05/10 07:54:08;;;;;;;19.00;15.45;;;;;;;12.79;100.00;100968.56;5017192;28;20098;-77
2023/05/10 07:56:34;;;;;;;19.45;15.43;;;;;;;12.86;100.00;100968.94;5015841;28;20100;-77
2023/05/10 07:59:06;;;;;;;19.33;15.20;;;;;;;12.79;100.00;100984.41;5017613;28;20128;-77
2023/05/10 08:01:33;;;;;;;21.58;15.75;;;;;;;12.84;100.00;100987.53;5009942;28;20029;-77
2023/05/10 08:03:58;;;;;;;19.98;14.82;;;;;;;12.85;100.00;100991.03;5028078;28;20037;-77
2023/05/10 08:06:26;;;;;;;24.08;14.88;;;;;;;12.84;100.00;100987.53;5027199;28;20123;-77
2023/05/10 08:08:53;;;;;;;20.60;15.75;;;;;;;12.88;100.00;100989.94;5027298;28;20112;-77
2023/05/10 08:11:21;;;;;;;21.70;14.73;;;;;;;12.89;100.00;100995.09;5028010;28;20029;-77
2023/05/10 08:13:48;;;;;;;20.77;15.68;;;;;;;12.99;100.00;101000.44;5027449;28;20505;-77
2023/05/10 08:16:13;;;;;;;17.27;13.52;;;;;;;13.08;100.00;100997.03;5029550;28;20057;-77
2023/05/10 08:18:40;;;;;;;15.40;12.75;;;;;;;13.15;100.00;100999.06;5028117;28;20108;-77
2023/05/10 08:21:06;;;;;;;14.75;12.07;;;;;;;13.23;100.00;101000.28;5026455;28;20104;-77
2023/05/10 08:23:32;;;;;;;18.08;12.63;;;;;;;13.30;100.00;101009.38;5030430;28;20025;-77
2023/05/10 08:25:57;;;;;;;16.55;12.93;;;;;;;13.38;100.00;101009.56;5038971;28;20039;-77
2023/05/10 08:28:26;;;;;;;15.00;11.93;;;;;;;13.45;100.00;101013.38;5026110;28;20029;-77
2023/05/10 08:30:52;;;;;;;15.27;11.15;;;;;;;13.47;100.00;101020.22;5030609;28;20056;-75
2023/05/10 08:33:18;;;;;;;11.85;10.57;;;;;;;13.61;100.00;101013.78;5028353;28;20033;-76
2023/05/10 08:35:43;;;;;;;15.45;10.60;;;;;;;13.66;100.00;101008.94;5028300;28;20389;-75
2023/05/10 08:38:12;;;;;;;13.32;9.48;;;;;;;13.90;100.00;101007.81;5028135;28;20022;-75
2023/05/10 08:40:41;;;;;;;14.57;9.43;;;;;;;14.30;100.00;101006.06;5028557;28;20496;-75
2023/05/10 08:43:09;;;;;;;11.43;7.93;;;;;;;14.54;100.00;101015.53;5028907;28;20137;-76
2023/05/10 08:45:40;;;;;;;9.70;7.97;;;;;;;14.90;100.00;101014.91;5029916;28;20022;-75
2023/05/10 08:48:07;;;;;;;10.13;6.57;;;;;;;15.11;98.73;101017.44;5029207;28;20026;-76
2023/05/10 08:50:35;;;;;;;10.35;5.57;;;;;;;15.16;99.02;101019.66;5026091;28;20103;-76
2023/05/10 08:53:05;;;;;;;6.63;5.80;;;;;;;15.35;97.10;101030.28;5027761;28;20025;-75
2023/05/10 08:55:33;;;;;;;8.75;5.68;;;;;;;15.47;97.96;101023.84;5033012;28;20036;-75
2023/05/10 08:58:05;;;;;;;8.40;7.05;;;;;;;15.38;95.49;101030.00;5033253;28;20432;-76
2023/05/10 09:00:31;;;;;;;6.90;5.88;;;;;;;15.35;94.78;101025.00;5033451;28;20029;-77
2023/05/10 09:03:06;;;;;;;7.68;6.28;;;;;;;15.38;96.56;101023.88;5032912;28;20029;-76
2023/05/10 09:05:31;;;;;;;6.45;5.45;;;;;;;15.37;94.78;101020.38;5033373;28;20432;-76
2023/05/10 09:07:58;;;;;;;8.95;5.43;;;;;;;15.75;94.60;101026.66;5038312;28;20021;-76
2023/05/10 09:10:27;;;;;;;7.82;6.05;;;;;;;16.02;94.52;101024.09;5030603;28;20084;-77
2023/05/10 09:12:57;;;;;;;6.88;6.20;;;;;;;16.08;91.58;101031.47;5031725;28;20402;-76
2023/05/10 09:15:23;;;;;;;9.93;6.65;;;;;;;16.10;93.45;101029.50;5021015;28;20365;-76
2023/05/10 09:17:49;;;;;;;8.95;6.22;;;;;;;16.22;87.79;101025.69;5027324;28;20052;-76
2023/05/10 09:20:17;;;;;;;6.25;5.63;;;;;;;16.33;88.52;101027.31;5025187;28;20371;-76
2023/05/10 09:22:44;;;;;;;8.18;5.57;;;;;;;16.47;89.15;101023.38;5032990;28;20029;-76
2023/05/10 09:25:14;;;;;;;9.10;5.88;;;;;;;16.42;90.38;101020.31;5031627;28;20037;-76
2023/05/10 09:27:44;;;;;;;9.07;6.70;;;;;;;16.27;90.77;101030.56;5019822;28;20099;-76
2023/05/10 09:30:10;;;;;;;8.32;6.18;;;;;;;16.27;90.30;101028.75;5031247;28;20079;-76
2023/05/10 09:32:44;;;;;;;7.68;6.80;;;;;;;16.20;90.23;101029.47;5015683;28;20104;-76
2023/05/10 09:35:16;;;;;;;8.35;6.93;;;;;;;16.20;90.82;101022.34;5020752;28;20064;-77
2023/05/10 09:37:44;;;;;;;10.65;7.07;;;;;;;16.16;94.13;101030.75;5030199;28;20026;-75
2023/05/10 09:40:17;;;;;;;7.38;6.25;;;;;;;16.11;91.08;101039.16;5031004;28;20025;-74
2023/05/10 09:42:56;;;;;;;8.35;6.10;;;;;;;15.98;92.22;101038.59;5031257;28;20219;-76
2023/05/10 09:45:23;;;;;;;11.55;6.18;;;;;;;15.87;92.24;101046.75;5031836;28;20889;-73
2023/05/10 09:47:49;;;;;;;5.68;4.72;;;;;;;15.80;90.42;101038.53;5033014;28;20037;-73
2023/05/10 09:50:14;;;;;;;4.65;3.63;;;;;;;15.73;90.35;101042.72;5031427;28;20017;-73
2023/05/10 09:52:57;;;;;;;6.68;4.38;;;;;;;15.70;95.37;101050.13;5026286;28;20031;-72
2023/05/10 09:55:25;;;;;;;7.00;3.88;;;;;;;15.57;92.89;101050.38;5030967;28;20037;-72
2023/05/10 09:57:59;;;;;;;5.00;3.85;;;;;;;15.52;93.15;101053.44;5029977;28;20025;-73
2023/05/10 10:00:27;;;;;;;4.82;3.85;;;;;;;15.46;92.25;101056.66;5027477;28;20498;-73
2023/05/10 10:02:59;;;;;;;5.07;3.90;;;;;;;15.42;92.61;101059.75;5024668;28;20029;-75
2023/05/10 10:05:33;;;;;;;;;;;;;;;15.59;96.44;101054.59;5029733;28;20036;-77
2023/05/10 10:08:01;;;;;;;;;;;;;;;15.55;96.22;101058.47;5034182;28;19917;-77
2023/05/10 10:10:28;;;;;;;6.13;4.72;;;;;;;15.36;92.97;101053.19;5028878;28;19917;-76
2023/05/10 10:12:57;;;;;;;5.68;4.97;;;;;;;15.32;94.28;101057.09;5030329;28;20094;-74
2023/05/10 10:15:24;;;;;;;7.13;5.70;;;;;;;15.41;95.43;101050.94;5030928;28;20033;-74
2023/05/10 10:17:51;;;;;;;10.32;6.20;;;;;;;15.58;92.42;101062.69;5030299;28;20048;-74
2023/05/10 10:20:18;;;;;;;6.97;6.28;;;;;;;16.05;90.75;101063.63;5028587;28;20037;-74
2023/05/10 10:22:44;;;;;;;6.70;5.75;;;;;;;16.39;87.54;101055.94;5029320;28;20037;-74
2023/05/10 10:25:14;;;;;;;6.70;6.10;;;;;;;16.74;90.28;101047.28;5033159;28;20033;-74
2023/05/10 10:27:46;;;;;;;9.15;6.70;;;;;;;16.75;89.07;101054.28;5037713;28;20486;-74
2023/05/10 10:30:49;;;;;;;11.10;5.30;;;;;;;16.92;87.34;101045.50;5031950;28;20037;-74
2023/05/10 10:33:38;;;;;;;6.63;5.00;;;;;;;16.93;87.44;101041.03;5019294;28;20025;-74
2023/05/10 10:36:05;;;;;;;6.75;5.22;;;;;;;16.95;87.60;101039.06;5027244;28;20481;-75
2023/05/10 10:38:46;;;;;;;6.60;5.93;;;;;;;17.05;87.02;101042.47;5031449;28;20033;-75
2023/05/10 10:42:03;;;;;;;8.50;6.88;;;;;;;17.06;85.81;101045.97;5030536;28;20381;-74
2023/05/10 10:44:33;;;;;;;7.72;6.88;;;;;;;16.86;87.21;101054.09;5033315;28;20029;-75
2023/05/10 10:47:08;;;;;;;7.90;7.10;;;;;;;16.91;86.58;101045.66;5030997;28;20517;-74
2023/05/10 10:49:57;;;;;;;8.15;6.93;;;;;;;16.79;87.87;101052.97;5024866;28;20045;-74
2023/05/10 10:52:32;;;;;;;8.25;7.13;;;;;;;16.84;85.58;101056.06;5019004;28;20048;-74
2023/05/10 10:55:13;;;;;;;8.57;7.15;;;;;;;16.71;86.31;101057.38;5032378;28;20025;-74
2023/05/10 10:57:48;;;;;;;6.55;5.85;;;;;;;16.66;88.62;101054.31;5029504;28;20021;-74
2023/05/10 11:00:30;;;;;;;7.28;6.05;;;;;;;16.92;88.89;101050.00;5029242;28;20082;-73
2023/05/10 11:02:59;;;;;;;7.20;6.35;;;;;;;17.01;82.43;101049.09;5021223;28;20550;-73
2023/05/10 11:05:35;;;;;;;8.95;6.72;;;;;;;17.10;84.08;101052.66;5029251;28;20021;-73
2023/05/10 11:08:12;;;;;;;7.43;6.72;;;;;;;17.09;85.08;101051.00;5040591;28;20100;-73
2023/05/10 11:10:39;;;;;;;9.43;7.55;;;;;;;16.95;84.92;101049.69;5017626;28;20060;-73
2023/05/10 11:13:08;;;;;;;11.73;8.48;;;;;;;16.76;85.02;101066.56;5028457;28;20057;-73